createdAt,value
2022-12-24T06:02:04.157Z,8.08
2022-12-24T06:04:31.119Z,8.03
2022-12-24T06:06:58.893Z,8.00
2022-12-24T06:09:27.181Z,8.03
2022-12-24T06:11:57.311Z,8.05
2022-12-24T06:14:23.957Z,7.99
2022-12-24T06:16:55.059Z,7.97
2022-12-24T06:19:21.963Z,7.97
2022-12-24T06:21:49.050Z,8.00
2022-12-24T06:24:16.643Z,8.04
2022-12-24T06:26:43.366Z,8.03
2022-12-24T06:29:12.016Z,8.05
2022-12-24T06:31:39.044Z,8.05
2022-12-24T06:34:06.435Z,8.06
2022-12-24T06:36:33.118Z,8.07
2022-12-24T06:39:00.685Z,8.07
2022-12-24T06:41:27.371Z,8.09
2022-12-24T06:43:54.710Z,8.09
2022-12-24T06:46:22.581Z,8.11
2022-12-24T06:48:49.473Z,8.10
2022-12-24T06:51:19.620Z,8.13
2022-12-24T06:53:46.769Z,8.14
2022-12-24T06:56:14.750Z,8.16
2022-12-24T06:58:44.513Z,8.17
2022-12-24T07:01:14.200Z,8.15
2022-12-24T07:03:41.507Z,8.20
2022-12-24T07:06:45.586Z,8.25
2022-12-24T07:12:15.468Z,8.25
2022-12-24T07:14:42.052Z,8.26
2022-12-24T07:17:09.912Z,8.28
2022-12-24T07:19:36.576Z,8.28
2022-12-24T07:22:03.835Z,8.29
2022-12-24T07:24:30.374Z,8.31
2022-12-24T07:26:57.255Z,8.33
2022-12-24T07:29:24.449Z,8.34
2022-12-24T07:31:51.063Z,8.38
2022-12-24T07:34:18.379Z,8.39
2022-12-24T07:36:44.930Z,8.42
2022-12-24T07:39:12.117Z,8.39
2022-12-24T07:41:41.660Z,8.39
2022-12-24T07:44:13.248Z,8.39
2022-12-24T07:46:40.670Z,8.40
2022-12-24T07:49:08.220Z,8.41
2022-12-24T07:51:34.865Z,8.43
2022-12-24T07:54:02.273Z,8.40
2022-12-24T07:56:28.809Z,8.40
2022-12-24T07:58:56.051Z,8.41
2022-12-24T08:01:22.933Z,8.49
2022-12-24T08:03:54.817Z,8.50
2022-12-24T08:06:22.108Z,8.47
2022-12-24T08:08:49.641Z,8.49
2022-12-24T08:11:16.348Z,8.50
2022-12-24T08:13:43.542Z,8.53
2022-12-24T08:16:10.213Z,8.55
2022-12-24T08:18:37.432Z,8.56
2022-12-24T08:21:07.946Z,8.57
2022-12-24T08:23:36.121Z,8.56
2022-12-24T08:26:02.818Z,8.55
2022-12-24T08:28:30.154Z,8.56
2022-12-24T08:30:56.871Z,8.60
2022-12-24T08:33:25.544Z,8.63
2022-12-24T08:35:54.694Z,8.64
2022-12-24T08:38:22.711Z,8.65
2022-12-24T08:40:50.117Z,8.68
2022-12-24T08:43:18.178Z,8.65
2022-12-24T08:45:46.419Z,8.72
2022-12-24T08:48:13.793Z,8.72
2022-12-24T08:50:41.610Z,8.74
2022-12-24T08:53:10.389Z,8.76
2022-12-24T08:55:37.398Z,8.77
2022-12-24T08:58:04.904Z,8.78
2022-12-24T09:00:31.687Z,8.81
2022-12-24T09:02:59.155Z,8.83
2022-12-24T09:05:26.039Z,8.83
2022-12-24T09:07:53.616Z,8.86
2022-12-24T09:10:20.814Z,8.86
2022-12-24T09:12:48.188Z,8.89
2022-12-24T09:15:15.228Z,8.94
2022-12-24T09:17:42.736Z,8.98
2022-12-24T09:20:10.191Z,9.04
2022-12-24T09:22:39.895Z,9.10
2022-12-24T09:25:07.414Z,9.14
2022-12-24T09:27:34.880Z,9.17
2022-12-24T09:30:01.459Z,9.14
2022-12-24T09:32:28.656Z,9.12
2022-12-24T09:34:55.272Z,9.11
2022-12-24T09:37:22.485Z,9.14
2022-12-24T09:39:49.080Z,9.12
2022-12-24T09:42:53.018Z,9.15
2022-12-24T09:45:35.936Z,9.17
2022-12-24T09:48:15.724Z,9.14
2022-12-24T09:50:59.101Z,9.18
2022-12-24T09:53:38.022Z,9.18
2022-12-24T09:56:12.896Z,9.18
2022-12-24T09:58:46.044Z,9.20
2022-12-24T10:01:15.721Z,9.25
2022-12-24T10:03:43.748Z,9.26
2022-12-24T10:06:16.100Z,9.25
2022-12-24T10:09:05.154Z,9.25
2022-12-24T10:11:44.083Z,9.27
2022-12-24T10:14:28.983Z,9.28
2022-12-24T10:17:17.726Z,9.29
2022-12-24T10:19:56.567Z,9.26
2022-12-24T10:22:35.733Z,9.25
2022-12-24T10:25:23.389Z,9.23
2022-12-24T10:27:54.753Z,9.21
2022-12-24T10:30:23.167Z,9.24
2022-12-24T10:32:52.867Z,9.30
2022-12-24T10:35:21.656Z,9.34
2022-12-24T10:37:51.470Z,9.33
2022-12-24T10:40:24.204Z,9.33
2022-12-24T10:42:51.994Z,9.33
2022-12-24T10:45:21.614Z,9.39
2022-12-24T10:47:54.562Z,9.40
2022-12-24T10:50:40.779Z,9.44
2022-12-24T10:53:21.745Z,9.41
2022-12-24T10:55:49.190Z,9.38
2022-12-24T10:58:19.840Z,9.44
2022-12-24T11:00:52.051Z,9.40
2022-12-24T11:03:19.269Z,9.40
2022-12-24T11:05:45.916Z,9.40
2022-12-24T11:08:13.089Z,9.44
2022-12-24T11:10:53.863Z,9.45
2022-12-24T11:13:38.020Z,9.46
2022-12-24T11:16:35.605Z,9.51
2022-12-24T11:19:15.713Z,9.56
2022-12-24T11:21:43.447Z,9.54
2022-12-24T11:24:12.991Z,9.57
2022-12-24T11:26:42.583Z,9.58
2022-12-24T11:29:12.440Z,9.57
2022-12-24T11:31:39.668Z,9.61
2022-12-24T11:34:30.904Z,9.57
2022-12-24T11:37:17.368Z,9.63
2022-12-24T11:39:49.459Z,9.65
2022-12-24T11:42:38.396Z,9.64
2022-12-24T11:45:17.753Z,9.68
2022-12-24T11:47:44.807Z,9.69
2022-12-24T11:50:35.530Z,9.71
2022-12-24T11:53:06.029Z,9.69
2022-12-24T11:56:34.429Z,9.72
2022-12-24T11:59:26.409Z,9.76
2022-12-24T12:02:18.119Z,9.77
2022-12-24T12:04:49.961Z,9.79
2022-12-24T12:07:25.810Z,9.80
2022-12-24T12:10:02.919Z,9.79
2022-12-24T12:12:35.393Z,9.80
2022-12-24T12:15:19.421Z,9.76
2022-12-24T12:17:55.091Z,9.75
2022-12-24T12:20:30.468Z,9.77
2022-12-24T12:23:26.036Z,9.78
2022-12-24T12:26:00.178Z,9.80
2022-12-24T12:28:35.624Z,9.82
2022-12-24T12:31:15.810Z,9.81
2022-12-24T12:33:49.830Z,9.84
2022-12-24T12:36:20.918Z,9.87
2022-12-24T12:38:50.213Z,9.86
2022-12-24T12:41:36.474Z,9.85
2022-12-24T12:44:16.410Z,9.87
2022-12-24T12:47:08.809Z,9.88
2022-12-24T12:49:56.504Z,9.87
2022-12-24T12:53:00.806Z,9.88
2022-12-24T12:55:40.666Z,9.90
2022-12-24T12:58:19.589Z,9.97
2022-12-24T13:00:50.030Z,9.96
2022-12-24T13:03:19.970Z,10.04
2022-12-24T13:05:52.558Z,9.98
2022-12-24T13:08:57.415Z,9.95
2022-12-24T13:11:33.110Z,9.96
2022-12-24T13:14:38.369Z,9.99
2022-12-24T13:17:21.754Z,9.97
2022-12-24T13:19:59.325Z,9.89
2022-12-24T13:22:25.905Z,9.86
2022-12-24T13:24:55.676Z,9.89
2022-12-24T13:27:28.452Z,9.86
2022-12-24T13:30:09.754Z,9.91
2022-12-24T13:32:47.106Z,9.90
2022-12-24T13:35:37.924Z,9.89
2022-12-24T13:38:26.723Z,9.90
2022-12-24T13:40:55.136Z,9.89
2022-12-24T13:43:22.246Z,9.87
2022-12-24T13:45:52.117Z,9.89
2022-12-24T13:48:25.342Z,9.90
2022-12-24T13:50:55.503Z,9.89
2022-12-24T13:53:29.428Z,9.84
2022-12-24T13:56:03.255Z,9.83
2022-12-24T13:58:30.793Z,9.82
2022-12-24T14:01:06.560Z,9.78
2022-12-24T14:03:45.670Z,9.78
2022-12-24T14:06:27.721Z,9.83
2022-12-24T14:09:19.192Z,9.78
2022-12-24T14:12:01.002Z,9.77
2022-12-24T14:14:41.035Z,9.75
2022-12-24T14:17:19.520Z,9.77
2022-12-24T14:19:59.328Z,9.72
2022-12-24T14:22:28.536Z,9.72
2022-12-24T14:24:59.920Z,9.72
2022-12-24T14:27:41.529Z,9.71
2022-12-24T14:30:19.786Z,9.64
2022-12-24T14:32:48.070Z,9.60
2022-12-24T14:35:21.880Z,9.51
2022-12-24T14:37:51.934Z,9.49
2022-12-24T14:40:25.856Z,9.46
2022-12-24T14:43:06.425Z,9.48
2022-12-24T14:45:46.022Z,9.48
2022-12-24T14:48:41.728Z,9.44
2022-12-24T14:51:32.735Z,9.44
2022-12-24T14:54:06.067Z,9.44
2022-12-24T14:56:32.649Z,9.40
2022-12-24T14:59:04.951Z,9.41
2022-12-24T15:01:34.388Z,9.36
2022-12-24T15:04:01.662Z,9.32
2022-12-24T15:06:31.689Z,9.32
2022-12-24T15:08:59.242Z,9.30
2022-12-24T15:11:25.974Z,9.27
2022-12-24T15:13:57.061Z,9.21
2022-12-24T15:16:37.085Z,9.10
2022-12-24T15:19:24.153Z,9.10
2022-12-24T15:21:50.964Z,9.05
2022-12-24T15:24:32.639Z,9.07
2022-12-24T15:27:02.813Z,8.99
2022-12-24T15:29:33.244Z,8.96
2022-12-24T15:32:02.248Z,8.89
2022-12-24T15:34:37.349Z,8.86
2022-12-24T15:37:31.568Z,8.85
2022-12-24T15:40:33.504Z,8.83
2022-12-24T15:43:01.049Z,8.73
2022-12-24T15:45:31.795Z,8.66
2022-12-24T15:48:06.284Z,8.64
2022-12-24T15:50:36.288Z,8.59
2022-12-24T15:53:19.932Z,8.51
2022-12-24T15:56:07.259Z,8.45
2022-12-24T15:58:40.237Z,8.42
2022-12-24T16:01:28.905Z,8.35
2022-12-24T16:03:58.505Z,8.31
2022-12-24T16:06:25.679Z,8.25
2022-12-24T16:08:52.964Z,8.20
2022-12-24T16:11:24.255Z,8.18
2022-12-24T16:13:51.229Z,8.13
2022-12-24T16:16:21.532Z,8.11
2022-12-24T16:18:54.810Z,8.04
2022-12-24T16:21:28.751Z,7.98
2022-12-24T16:23:58.837Z,7.93
2022-12-24T16:26:25.391Z,7.92
2022-12-24T16:28:52.628Z,7.86
2022-12-24T16:31:29.464Z,7.79
2022-12-24T16:33:59.291Z,7.74
2022-12-24T16:36:26.178Z,7.69
2022-12-24T16:39:11.693Z,7.65
2022-12-24T16:41:58.243Z,7.62
2022-12-24T16:44:25.487Z,7.57
2022-12-24T16:46:53.643Z,7.51
2022-12-24T16:49:23.191Z,7.48
2022-12-24T16:51:49.781Z,7.44
2022-12-24T16:54:16.976Z,7.39
2022-12-24T16:56:44.705Z,7.36
2022-12-24T16:59:17.780Z,7.31
2022-12-24T17:01:44.738Z,7.26
2022-12-24T17:04:12.303Z,7.22
2022-12-24T17:06:38.932Z,7.18
2022-12-24T17:09:06.639Z,7.14
2022-12-24T17:11:33.204Z,7.09
2022-12-24T17:14:07.210Z,7.06
2022-12-24T17:16:37.302Z,7.01
2022-12-24T17:19:05.226Z,6.96
2022-12-24T17:21:32.406Z,6.92
2022-12-24T17:23:59.619Z,6.89
2022-12-24T17:26:26.524Z,6.85
2022-12-24T17:28:55.532Z,6.80
2022-12-24T17:31:23.206Z,6.77
2022-12-24T17:33:52.010Z,6.73
2022-12-24T17:36:18.954Z,6.69
2022-12-24T17:38:46.306Z,6.66
2022-12-24T17:41:15.960Z,6.61
2022-12-24T17:43:43.675Z,6.57
2022-12-24T17:46:28.466Z,6.54
2022-12-24T17:48:56.126Z,6.51
2022-12-24T17:51:23.650Z,6.49
2022-12-24T17:53:51.399Z,6.47
2022-12-24T17:56:18.285Z,6.45
2022-12-24T17:58:46.825Z,6.42
2022-12-24T18:01:19.264Z,6.39
2022-12-24T18:03:50.033Z,6.36
2022-12-24T18:06:17.354Z,6.34
2022-12-24T18:08:46.885Z,6.31
2022-12-24T18:11:13.413Z,6.28
2022-12-24T18:13:40.871Z,6.25
2022-12-24T18:16:19.136Z,6.22
2022-12-24T18:18:46.911Z,6.18
2022-12-24T18:21:14.702Z,6.12
2022-12-24T18:23:43.430Z,6.05
2022-12-24T18:26:10.874Z,6.01
2022-12-24T18:28:38.504Z,5.96
2022-12-24T18:31:08.646Z,5.92
2022-12-24T18:33:36.560Z,5.87
2022-12-24T18:36:03.689Z,5.83
2022-12-24T18:38:31.662Z,5.80
2022-12-24T18:41:09.540Z,5.77
2022-12-24T18:43:37.223Z,5.74
2022-12-24T18:46:13.033Z,5.70
2022-12-24T18:48:41.225Z,5.67
2022-12-24T18:51:09.196Z,5.64
2022-12-24T18:53:38.832Z,5.63
2022-12-24T18:56:07.084Z,5.61
2022-12-24T18:58:34.421Z,5.58
2022-12-24T19:01:01.082Z,5.56
2022-12-24T19:03:28.282Z,5.55
2022-12-24T19:06:01.901Z,5.55
2022-12-24T19:08:56.354Z,5.53
2022-12-24T19:11:16.627Z,5.49
2022-12-24T19:13:50.810Z,5.46
2022-12-24T19:16:18.272Z,5.45
2022-12-24T19:18:45.566Z,5.41
2022-12-24T19:21:13.641Z,5.35
2022-12-24T19:23:41.016Z,5.30
2022-12-24T19:26:09.179Z,5.27
2022-12-24T19:28:36.380Z,5.27
2022-12-24T19:31:08.162Z,5.25
2022-12-24T19:33:42.878Z,5.22
2022-12-24T19:36:21.303Z,5.18
2022-12-24T19:38:48.564Z,5.11
2022-12-24T19:41:27.538Z,5.08
2022-12-24T19:43:56.916Z,5.03
2022-12-24T19:46:30.420Z,4.98
2022-12-24T19:49:00.234Z,4.94
2022-12-24T19:51:28.682Z,4.93
2022-12-24T19:53:57.246Z,4.90
2022-12-24T19:56:25.565Z,4.87
2022-12-24T19:58:52.994Z,4.84
2022-12-24T20:01:24.667Z,4.83
2022-12-24T20:03:53.412Z,4.79
2022-12-24T20:06:22.918Z,4.76
2022-12-24T20:08:50.019Z,4.69
2022-12-24T20:11:19.207Z,4.63
2022-12-24T20:13:46.558Z,4.60
2022-12-24T20:16:19.135Z,4.53
2022-12-24T20:19:01.544Z,4.50
2022-12-24T20:21:28.117Z,4.46
2022-12-24T20:23:55.005Z,4.44
2022-12-24T20:26:24.124Z,4.39
2022-12-24T20:28:51.471Z,4.32
2022-12-24T20:31:20.816Z,4.32
2022-12-24T20:33:48.244Z,4.29
2022-12-24T20:36:17.850Z,4.24
2022-12-24T20:38:45.613Z,4.20
2022-12-24T20:41:14.437Z,4.17
2022-12-24T20:43:47.964Z,4.16
2022-12-24T20:46:16.483Z,4.14
2022-12-24T20:48:43.795Z,4.10
2022-12-24T20:51:19.199Z,4.07
2022-12-24T20:53:50.796Z,4.03
2022-12-24T20:56:18.341Z,3.99
2022-12-24T20:58:46.195Z,3.97
2022-12-24T21:01:17.656Z,3.93
2022-12-24T21:03:45.494Z,3.89
2022-12-24T21:06:12.632Z,3.87
2022-12-24T21:08:39.547Z,3.85
2022-12-24T21:11:25.639Z,3.81
2022-12-24T21:13:52.575Z,3.80
2022-12-24T21:16:19.206Z,3.77
2022-12-24T21:18:46.501Z,3.77
2022-12-24T21:21:13.086Z,3.77
2022-12-24T21:23:39.961Z,3.73
2022-12-24T21:26:07.233Z,3.74
2022-12-24T21:28:33.987Z,3.73
